createdAt,value
2022-08-14T00:02:13.970Z,91.40
2022-08-14T00:04:44.899Z,91.60
2022-08-14T00:07:13.984Z,91.70
2022-08-14T00:10:01.626Z,91.90
2022-08-14T00:12:48.189Z,92.10
2022-08-14T00:15:29.922Z,92.30
2022-08-14T00:18:06.664Z,92.70
2022-08-14T00:20:43.268Z,92.90
2022-08-14T00:23:16.631Z,93.30
2022-08-14T00:25:58.723Z,93.80
2022-08-14T00:28:36.044Z,93.90
2022-08-14T00:31:05.716Z,94.20
2022-08-14T00:33:52.532Z,94.50
2022-08-14T00:36:35.716Z,94.60
2022-08-14T00:39:18.295Z,94.90
2022-08-14T00:41:46.964Z,95.30
2022-08-14T00:44:14.824Z,95.60
2022-08-14T00:46:49.562Z,95.80
2022-08-14T00:49:18.099Z,96.00
2022-08-14T00:51:48.351Z,96.00
2022-08-14T00:54:22.096Z,96.40
2022-08-14T00:56:55.211Z,96.60
2022-08-14T00:59:25.074Z,97.00
2022-08-14T01:01:54.483Z,97.20
2022-08-14T01:04:38.258Z,97.90
2022-08-14T01:07:10.775Z,97.80
2022-08-14T01:09:39.227Z,98.10
2022-08-14T01:12:07.732Z,98.30
2022-08-14T01:14:35.785Z,98.70
2022-08-14T01:17:03.943Z,99.10
2022-08-14T01:19:49.950Z,99.40
2022-08-14T01:22:21.002Z,99.80
2022-08-14T01:24:54.234Z,99.90
2022-08-14T01:27:24.126Z,99.90
2022-08-14T01:30:01.275Z,99.90
2022-08-14T01:32:35.351Z,99.90
2022-08-14T01:36:04.942Z,99.90
2022-08-14T01:38:05.801Z,99.90
2022-08-14T01:40:41.148Z,99.90
2022-08-14T01:43:14.550Z,99.90
2022-08-14T01:45:49.179Z,99.90
2022-08-14T01:48:33.574Z,99.90
2022-08-14T01:51:05.739Z,99.90
2022-08-14T01:53:51.377Z,99.90
2022-08-14T01:56:37.404Z,99.90
2022-08-14T01:59:10.195Z,99.90
2022-08-14T02:01:51.312Z,99.90
2022-08-14T02:04:40.639Z,99.90
2022-08-14T02:07:34.898Z,99.90
2022-08-14T02:10:07.020Z,99.90
2022-08-14T02:12:34.722Z,99.90
2022-08-14T02:15:02.218Z,99.90
2022-08-14T02:17:30.683Z,99.90
2022-08-14T02:19:58.523Z,99.90
2022-08-14T02:22:29.222Z,99.90
2022-08-14T02:25:00.234Z,99.90
2022-08-14T02:28:24.684Z,99.90
2022-08-14T02:30:16.670Z,99.90
2022-08-14T02:32:44.540Z,99.90
2022-08-14T02:35:18.882Z,99.90
2022-08-14T02:37:49.381Z,99.90
2022-08-14T02:40:19.428Z,99.90
2022-08-14T02:42:55.365Z,99.90
2022-08-14T02:45:33.641Z,99.90
2022-08-14T02:49:01.313Z,99.90
2022-08-14T02:50:57.839Z,99.90
2022-08-14T02:53:31.593Z,99.90
2022-08-14T02:56:03.344Z,99.90
2022-08-14T02:58:47.606Z,99.90
2022-08-14T03:01:17.039Z,99.90
2022-08-14T03:03:51.198Z,99.90
2022-08-14T03:06:35.079Z,99.90
2022-08-14T03:09:13.095Z,99.90
2022-08-14T03:11:44.786Z,99.90
2022-08-14T03:14:15.459Z,99.90
2022-08-14T03:16:49.417Z,99.90
2022-08-14T03:19:19.768Z,99.90
2022-08-14T03:21:47.046Z,99.90
2022-08-14T03:24:23.316Z,99.90
2022-08-14T03:26:57.297Z,99.90
2022-08-14T03:29:26.535Z,99.90
2022-08-14T03:31:54.195Z,99.90
2022-08-14T03:34:24.779Z,99.90
2022-08-14T03:37:38.520Z,99.90
2022-08-14T03:40:00.414Z,99.90
2022-08-14T03:42:35.997Z,99.90
2022-08-14T03:45:26.478Z,99.90
2022-08-14T03:47:58.381Z,99.90
2022-08-14T03:50:31.543Z,99.90
2022-08-14T03:53:03.521Z,99.90
2022-08-14T03:55:31.421Z,99.90
2022-08-14T03:58:00.421Z,99.90
2022-08-14T04:00:43.349Z,99.90
2022-08-14T04:03:14.251Z,99.90
2022-08-14T04:05:48.938Z,99.90
2022-08-14T04:08:29.294Z,99.90
2022-08-14T04:11:01.953Z,99.90
2022-08-14T04:13:34.088Z,99.90
2022-08-14T04:16:31.880Z,99.90
2022-08-14T04:19:00.070Z,99.90
2022-08-14T04:21:39.642Z,99.90
2022-08-14T04:24:07.194Z,99.90
2022-08-14T04:26:41.916Z,99.90
2022-08-14T04:29:15.271Z,99.90
2022-08-14T04:33:10.255Z,99.90
2022-08-14T04:34:30.151Z,99.90
2022-08-14T04:37:22.133Z,99.90
2022-08-14T04:40:12.543Z,99.90
2022-08-14T04:43:14.234Z,99.90
2022-08-14T04:45:51.507Z,99.90
2022-08-14T04:48:38.812Z,99.90
2022-08-14T04:51:13.938Z,99.90
2022-08-14T04:53:45.753Z,99.90
2022-08-14T04:56:31.049Z,99.90
2022-08-14T04:59:09.926Z,99.90
2022-08-14T05:01:45.264Z,99.90
2022-08-14T05:04:20.404Z,99.90
2022-08-14T05:06:53.750Z,99.90
2022-08-14T05:09:28.937Z,99.90
2022-08-14T05:12:23.922Z,99.90
2022-08-14T05:14:54.714Z,99.90
2022-08-14T05:17:32.128Z,99.90
2022-08-14T05:21:04.380Z,99.90
2022-08-14T05:22:59.908Z,99.90
2022-08-14T05:25:30.804Z,99.90
2022-08-14T05:28:12.495Z,99.90
2022-08-14T05:30:43.793Z,99.90
2022-08-14T05:33:12.847Z,99.90
2022-08-14T05:35:42.569Z,99.90
2022-08-14T05:38:30.792Z,99.90
2022-08-14T05:40:59.780Z,99.90
2022-08-14T05:43:40.780Z,99.90
2022-08-14T05:46:11.370Z,99.90
2022-08-14T05:48:43.193Z,99.90
2022-08-14T05:51:10.552Z,99.90
2022-08-14T05:53:37.627Z,99.90
2022-08-14T05:56:09.690Z,99.90
2022-08-14T05:58:40.935Z,99.90
2022-08-14T06:01:09.696Z,99.90
2022-08-14T06:03:37.412Z,99.90
2022-08-14T06:06:07.754Z,99.90
2022-08-14T06:08:41.287Z,99.90
2022-08-14T06:11:10.039Z,99.90
2022-08-14T06:13:45.587Z,99.90
2022-08-14T06:16:17.561Z,99.90
2022-08-14T06:18:52.533Z,99.90
2022-08-14T06:21:22.088Z,99.30
2022-08-14T06:23:50.231Z,99.00
2022-08-14T06:26:20.651Z,98.50
2022-08-14T06:28:52.140Z,97.60
2022-08-14T06:31:20.893Z,97.20
2022-08-14T06:35:11.363Z,97.50
2022-08-14T06:36:39.549Z,97.50
2022-08-14T06:39:10.025Z,97.10
2022-08-14T06:41:57.912Z,96.30
2022-08-14T06:44:30.668Z,95.80
2022-08-14T06:47:00.115Z,94.40
2022-08-14T06:49:27.502Z,94.10
2022-08-14T06:51:57.633Z,93.80
2022-08-14T06:54:31.212Z,92.80
2022-08-14T06:56:59.880Z,91.90
2022-08-14T06:59:27.308Z,91.60
2022-08-14T07:02:13.614Z,91.50
2022-08-14T07:05:05.500Z,89.30
2022-08-14T07:07:40.352Z,87.10
2022-08-14T07:10:17.062Z,87.50
2022-08-14T07:13:01.815Z,89.00
2022-08-14T07:15:33.974Z,88.00
2022-08-14T07:18:08.621Z,86.60
2022-08-14T07:20:36.566Z,83.30
2022-08-14T07:23:08.465Z,80.80
2022-08-14T07:25:38.552Z,77.00
2022-08-14T07:28:20.822Z,74.70
2022-08-14T07:30:50.817Z,71.40
2022-08-14T07:33:24.541Z,69.20
2022-08-14T07:35:59.251Z,67.60
2022-08-14T07:38:35.482Z,66.10
2022-08-14T07:41:11.950Z,66.70
2022-08-14T07:43:47.332Z,63.70
2022-08-14T07:46:21.399Z,60.60
2022-08-14T07:48:57.104Z,61.30
2022-08-14T07:51:24.655Z,59.40
2022-08-14T07:53:56.859Z,59.50
2022-08-14T07:56:44.520Z,58.70
2022-08-14T07:59:12.691Z,58.60
2022-08-14T08:01:48.099Z,57.50
2022-08-14T08:04:25.337Z,57.80
2022-08-14T08:06:55.364Z,57.00
2022-08-14T08:09:31.904Z,57.50
2022-08-14T08:12:05.002Z,56.90
2022-08-14T08:14:55.755Z,57.10
2022-08-14T08:17:23.616Z,56.20
2022-08-14T08:19:51.684Z,57.90
2022-08-14T08:22:21.430Z,56.80
2022-08-14T08:24:50.469Z,56.30
2022-08-14T08:27:21.476Z,56.60
2022-08-14T08:29:51.016Z,57.60
2022-08-14T08:32:18.756Z,56.70
2022-08-14T08:34:48.553Z,54.70
2022-08-14T08:37:16.700Z,55.70
2022-08-14T08:40:01.799Z,55.30
2022-08-14T08:42:31.603Z,56.60
2022-08-14T08:45:11.849Z,55.20
2022-08-14T08:47:42.927Z,54.80
2022-08-14T08:53:03.603Z,54.90
2022-08-14T08:55:35.017Z,55.60
2022-08-14T08:58:12.781Z,53.60
2022-08-14T09:00:54.934Z,53.00
2022-08-14T09:03:30.172Z,52.00
2022-08-14T09:06:02.833Z,51.20
2022-08-14T09:08:33.223Z,52.50
2022-08-14T09:11:19.155Z,53.00
2022-08-14T09:13:50.787Z,53.10
2022-08-14T09:16:23.634Z,52.10
2022-08-14T09:18:53.319Z,52.70
2022-08-14T09:21:24.086Z,52.00
2022-08-14T09:24:29.600Z,52.00
2022-08-14T09:26:43.922Z,49.20
2022-08-14T09:29:22.702Z,48.90
2022-08-14T09:31:57.059Z,48.70
2022-08-14T09:34:58.751Z,49.50
2022-08-14T09:37:43.760Z,50.50
2022-08-14T09:40:22.962Z,50.40
2022-08-14T09:43:03.477Z,50.40
2022-08-14T09:45:53.201Z,51.80
2022-08-14T09:48:30.668Z,51.20
2022-08-14T09:54:19.006Z,50.30
2022-08-14T09:56:56.546Z,49.70
2022-08-14T09:59:28.184Z,50.20
2022-08-14T10:01:59.807Z,48.90
2022-08-14T10:04:34.882Z,49.60
2022-08-14T10:07:05.702Z,49.20
2022-08-14T10:09:35.160Z,48.40
2022-08-14T10:12:04.574Z,49.40
2022-08-14T10:14:36.587Z,48.40
2022-08-14T10:17:07.113Z,49.10
2022-08-14T10:19:37.221Z,49.00
2022-08-14T10:23:13.513Z,49.60
2022-08-14T10:25:00.055Z,49.50
2022-08-14T10:27:28.252Z,49.70
2022-08-14T10:30:00.983Z,49.50
2022-08-14T10:32:38.087Z,49.80
2022-08-14T10:35:14.039Z,49.60
2022-08-14T10:37:52.735Z,49.50
2022-08-14T10:40:38.329Z,49.80
2022-08-14T10:43:31.863Z,50.50
2022-08-14T10:46:21.993Z,50.50
2022-08-14T10:49:04.513Z,50.60
2022-08-14T10:51:35.281Z,50.20
2022-08-14T10:54:17.066Z,50.00
2022-08-14T10:57:13.616Z,49.80
2022-08-14T10:59:53.936Z,50.20
2022-08-14T11:02:45.084Z,50.00
2022-08-14T11:05:18.674Z,49.90
2022-08-14T11:07:56.839Z,49.10
2022-08-14T11:10:27.818Z,48.30
2022-08-14T11:12:58.714Z,48.60
2022-08-14T11:15:27.960Z,49.20
2022-08-14T11:18:01.188Z,49.40
2022-08-14T11:20:30.915Z,50.20
2022-08-14T11:23:01.208Z,49.80
2022-08-14T11:25:43.390Z,49.70
2022-08-14T11:28:19.117Z,50.20
2022-08-14T11:30:53.643Z,49.00
2022-08-14T11:33:29.322Z,48.50
2022-08-14T11:36:01.766Z,48.60
2022-08-14T11:38:40.896Z,48.70
2022-08-14T11:41:14.251Z,48.20
2022-08-14T11:43:57.820Z,47.70
2022-08-14T11:46:30.247Z,47.20
2022-08-14T11:49:05.995Z,47.80
2022-08-14T11:51:50.849Z,48.70
2022-08-14T11:54:34.759Z,48.00
2022-08-14T11:57:02.703Z,48.50
2022-08-14T11:59:33.984Z,47.60
2022-08-14T12:03:01.507Z,47.20
2022-08-14T12:05:04.061Z,48.40
2022-08-14T12:07:32.123Z,48.50
2022-08-14T12:09:59.859Z,48.50
2022-08-14T12:12:35.802Z,48.10
2022-08-14T12:15:07.121Z,48.50
2022-08-14T12:17:47.622Z,47.50
2022-08-14T12:20:32.328Z,46.80
2022-08-14T12:23:02.244Z,46.90
2022-08-14T12:25:34.760Z,47.40
2022-08-14T12:28:08.596Z,46.80
2022-08-14T12:30:43.728Z,47.60
2022-08-14T12:33:34.023Z,46.60
2022-08-14T12:36:05.678Z,46.00
2022-08-14T12:38:37.586Z,45.80
2022-08-14T12:41:20.982Z,46.00
2022-08-14T12:43:57.025Z,45.90
2022-08-14T12:46:43.745Z,46.20
2022-08-14T12:49:17.667Z,45.40
2022-08-14T12:51:57.583Z,45.70
2022-08-14T12:54:27.683Z,45.40
2022-08-14T12:57:04.907Z,45.40
2022-08-14T12:59:37.146Z,46.20
2022-08-14T13:02:25.379Z,45.60
2022-08-14T13:04:56.501Z,45.20
2022-08-14T13:07:26.900Z,46.40
2022-08-14T13:10:00.281Z,46.30
2022-08-14T13:12:32.042Z,44.80
2022-08-14T13:15:09.409Z,45.70
2022-08-14T13:18:05.058Z,44.80
2022-08-14T13:20:34.663Z,43.90
2022-08-14T13:23:03.108Z,43.60
2022-08-14T13:25:30.139Z,44.30
2022-08-14T13:27:59.954Z,43.90
2022-08-14T13:30:27.899Z,42.80
2022-08-14T13:32:58.394Z,43.50
2022-08-14T13:35:26.359Z,44.20
2022-08-14T13:37:54.258Z,44.40
2022-08-14T13:40:26.646Z,43.70
2022-08-14T13:42:55.467Z,43.70
2022-08-14T13:45:56.420Z,43.30
2022-08-14T13:48:19.126Z,42.90
2022-08-14T13:51:03.884Z,42.50
2022-08-14T13:53:35.149Z,42.10
2022-08-14T13:56:06.126Z,43.20
2022-08-14T13:58:35.637Z,43.40
2022-08-14T14:01:04.530Z,43.70
2022-08-14T14:03:35.343Z,43.50
2022-08-14T14:06:03.725Z,43.60
2022-08-14T14:08:43.630Z,42.90
2022-08-14T14:11:15.950Z,42.40
2022-08-14T14:13:45.991Z,43.10
2022-08-14T14:16:26.344Z,43.00
2022-08-14T14:19:09.024Z,43.10
2022-08-14T14:21:40.876Z,42.90
2022-08-14T14:24:11.810Z,43.30
2022-08-14T14:26:46.376Z,42.00
2022-08-14T14:29:14.576Z,42.10
2022-08-14T14:31:46.235Z,41.10
2022-08-14T14:34:20.075Z,42.10
2022-08-14T14:37:03.587Z,42.30
2022-08-14T14:40:50.772Z,43.00
2022-08-14T14:42:32.009Z,43.50
2022-08-14T14:45:12.249Z,42.20
2022-08-14T14:47:39.967Z,41.60
2022-08-14T14:50:11.195Z,41.90
2022-08-14T14:52:40.413Z,42.10
2022-08-14T14:55:09.749Z,42.50
2022-08-14T14:57:37.194Z,42.90
2022-08-14T15:00:12.964Z,42.30
2022-08-14T15:02:49.697Z,42.90
2022-08-14T15:05:20.201Z,42.90
2022-08-14T15:07:51.157Z,43.10
2022-08-14T15:10:26.854Z,44.10
2022-08-14T15:13:04.023Z,43.90
2022-08-14T15:15:37.526Z,42.90
2022-08-14T15:18:36.845Z,41.50
2022-08-14T15:21:02.565Z,41.10
2022-08-14T15:23:43.613Z,40.60
2022-08-14T15:26:31.012Z,40.90
2022-08-14T15:29:02.176Z,41.00
2022-08-14T15:31:32.347Z,41.50
2022-08-14T15:34:44.834Z,40.80
2022-08-14T15:37:10.929Z,41.20
2022-08-14T15:39:41.423Z,41.80
2022-08-14T15:42:14.874Z,41.80
2022-08-14T15:44:58.283Z,42.20
2022-08-14T15:47:31.035Z,42.80
2022-08-14T15:50:05.013Z,42.30
2022-08-14T15:52:37.308Z,42.40
2022-08-14T15:55:08.266Z,42.50
2022-08-14T15:57:36.467Z,42.40
2022-08-14T16:00:40.103Z,42.50
2022-08-14T16:03:15.689Z,42.80
2022-08-14T16:05:46.018Z,42.20
2022-08-14T16:08:26.842Z,42.20
2022-08-14T16:11:03.922Z,42.20
2022-08-14T16:13:41.975Z,42.00
2022-08-14T16:16:47.293Z,41.50
2022-08-14T16:19:10.210Z,40.90
2022-08-14T16:21:40.291Z,41.00
2022-08-14T16:24:27.545Z,41.80
2022-08-14T16:27:00.871Z,42.00
2022-08-14T16:29:30.363Z,42.20
2022-08-14T16:32:01.607Z,42.70
2022-08-14T16:34:46.032Z,42.80
2022-08-14T16:37:16.765Z,43.00
2022-08-14T16:39:44.276Z,43.50
2022-08-14T16:42:39.074Z,44.00
2022-08-14T16:45:00.222Z,44.90
2022-08-14T16:47:32.220Z,45.90
2022-08-14T16:50:08.752Z,46.60
2022-08-14T16:52:44.756Z,47.40
2022-08-14T16:55:29.996Z,47.70
2022-08-14T16:57:59.233Z,47.70
2022-08-14T17:00:28.745Z,47.90
2022-08-14T17:03:08.437Z,47.80
2022-08-14T17:05:43.211Z,48.70
2022-08-14T17:08:31.939Z,49.30
2022-08-14T17:11:10.793Z,49.50
2022-08-14T17:13:58.488Z,50.20
2022-08-14T17:16:37.904Z,50.60
2022-08-14T17:19:17.754Z,51.00
2022-08-14T17:21:49.064Z,50.90
2022-08-14T17:24:56.044Z,51.30
2022-08-14T17:27:10.422Z,51.40
2022-08-14T17:29:44.737Z,52.10
2022-08-14T17:32:30.044Z,51.80
2022-08-14T17:35:17.137Z,52.20
2022-08-14T17:37:55.651Z,52.10
2022-08-14T17:40:31.664Z,52.50
2022-08-14T17:43:02.038Z,52.60
2022-08-14T17:45:41.310Z,53.10
2022-08-14T17:49:13.847Z,53.30
2022-08-14T17:51:23.986Z,53.90
2022-08-14T17:54:02.776Z,54.40
2022-08-14T17:56:33.600Z,54.90
2022-08-14T17:59:06.041Z,55.30
2022-08-14T18:01:39.559Z,55.90
2022-08-14T18:04:28.437Z,56.10
2022-08-14T18:07:16.617Z,56.20
2022-08-14T18:09:57.080Z,56.50
2022-08-14T18:12:37.074Z,56.80
2022-08-14T18:15:16.554Z,57.00
2022-08-14T18:17:52.766Z,57.60
2022-08-14T18:21:41.309Z,58.20
2022-08-14T18:23:13.819Z,58.70
2022-08-14T18:25:52.555Z,59.30
2022-08-14T18:28:37.913Z,59.30
2022-08-14T18:31:42.296Z,59.60
2022-08-14T18:34:30.896Z,60.30
2022-08-14T18:37:09.669Z,60.60
2022-08-14T18:40:03.336Z,60.60
2022-08-14T18:42:35.228Z,61.60
2022-08-14T18:45:12.551Z,62.30
2022-08-14T18:48:06.585Z,62.40
2022-08-14T18:50:33.487Z,62.80
2022-08-14T18:53:10.828Z,63.30
2022-08-14T18:55:53.234Z,63.40
2022-08-14T18:58:31.748Z,63.50
2022-08-14T19:01:02.129Z,63.50
2022-08-14T19:03:34.182Z,63.60
2022-08-14T19:06:09.038Z,63.90
2022-08-14T19:08:47.822Z,63.70
2022-08-14T19:11:42.220Z,63.60
2022-08-14T19:14:13.253Z,64.30
2022-08-14T19:16:43.094Z,64.10
2022-08-14T19:19:20.678Z,65.20
2022-08-14T19:21:56.955Z,65.20
2022-08-14T19:24:44.174Z,66.50
2022-08-14T19:27:26.250Z,66.40
2022-08-14T19:30:32.339Z,66.90
2022-08-14T19:33:03.660Z,67.50
2022-08-14T19:35:48.592Z,68.00
2022-08-14T19:38:53.903Z,68.40
2022-08-14T19:41:22.852Z,69.00
2022-08-14T19:43:56.867Z,69.00
2022-08-14T19:46:37.657Z,69.10
2022-08-14T19:49:06.256Z,69.20
2022-08-14T19:51:44.861Z,68.90
2022-08-14T19:54:13.479Z,68.80
2022-08-14T19:56:44.975Z,68.70
2022-08-14T19:59:19.023Z,69.30
2022-08-14T20:01:51.581Z,69.60
2022-08-14T20:04:46.767Z,69.20
2022-08-14T20:08:00.720Z,69.70
2022-08-14T20:11:08.059Z,69.80
2022-08-14T20:13:32.277Z,69.50
2022-08-14T20:16:07.235Z,69.80
2022-08-14T20:18:50.103Z,70.30
2022-08-14T20:21:18.675Z,70.30
2022-08-14T20:23:48.139Z,70.00
2022-08-14T20:26:30.904Z,69.90
2022-08-14T20:29:04.938Z,69.80
2022-08-14T20:31:37.290Z,69.60
2022-08-14T20:34:24.280Z,69.80
2022-08-14T20:37:26.303Z,70.40
2022-08-14T20:39:55.673Z,70.90
2022-08-14T20:42:43.786Z,71.30
2022-08-14T20:45:24.907Z,71.40
2022-08-14T20:48:07.472Z,71.60
2022-08-14T20:50:36.804Z,72.30
2022-08-14T20:53:34.597Z,72.60
2022-08-14T20:56:28.565Z,73.00
2022-08-14T20:58:57.389Z,73.00
2022-08-14T21:01:24.447Z,73.00
2022-08-14T21:04:02.411Z,72.90
2022-08-14T21:07:23.939Z,73.20
2022-08-14T21:10:03.044Z,73.30
2022-08-14T21:12:33.813Z,73.50
2022-08-14T21:15:01.598Z,74.00
2022-08-14T21:17:30.206Z,74.00
2022-08-14T21:19:57.454Z,74.40
2022-08-14T21:22:26.973Z,74.50
2022-08-14T21:25:01.575Z,74.60
2022-08-14T21:27:29.262Z,74.80
2022-08-14T21:30:08.452Z,74.90
2022-08-14T21:32:50.283Z,74.80
2022-08-14T21:35:26.021Z,74.50
2022-08-14T21:37:53.952Z,74.30
2022-08-14T21:40:42.527Z,74.20
2022-08-14T21:43:20.899Z,74.40
2022-08-14T21:45:53.812Z,74.40
2022-08-14T21:48:29.839Z,74.60
2022-08-14T21:51:52.949Z,74.90
2022-08-14T21:53:59.189Z,75.20
2022-08-14T21:56:37.620Z,75.20
2022-08-14T21:59:09.970Z,75.40
2022-08-14T22:02:00.701Z,76.70
2022-08-14T22:04:32.890Z,76.20
2022-08-14T22:07:16.781Z,77.60
2022-08-14T22:09:55.365Z,77.10
2022-08-14T22:12:58.533Z,77.30
2022-08-14T22:15:14.634Z,77.70
2022-08-14T22:17:44.321Z,77.80
2022-08-14T22:20:12.575Z,78.10
2022-08-14T22:22:43.713Z,78.20
2022-08-14T22:25:17.484Z,78.50
2022-08-14T22:27:56.196Z,78.60
2022-08-14T22:30:25.303Z,78.60
2022-08-14T22:32:57.571Z,79.00
2022-08-14T22:35:26.315Z,79.00
2022-08-14T22:38:01.918Z,79.10
2022-08-14T22:41:04.486Z,79.40
2022-08-14T22:43:31.723Z,79.70
2022-08-14T22:46:02.140Z,80.30
2022-08-14T22:48:30.224Z,80.60
2022-08-14T22:50:57.374Z,81.00
2022-08-14T22:53:29.140Z,81.40
2022-08-14T22:55:57.086Z,82.00
2022-08-14T22:58:31.778Z,82.30
2022-08-14T23:01:07.681Z,82.80
2022-08-14T23:03:40.511Z,83.50
2022-08-14T23:07:03.043Z,83.80
2022-08-14T23:09:35.024Z,84.10
2022-08-14T23:11:47.005Z,84.60
2022-08-14T23:14:24.034Z,85.50
2022-08-14T23:16:57.538Z,85.60
2022-08-14T23:19:33.774Z,86.30
2022-08-14T23:22:05.181Z,86.60
2022-08-14T23:24:32.488Z,86.60
2022-08-14T23:26:59.796Z,86.70
2022-08-14T23:29:27.183Z,87.00
2022-08-14T23:31:59.147Z,87.00
2022-08-14T23:34:29.466Z,87.30
2022-08-14T23:36:58.491Z,87.20
2022-08-14T23:39:34.571Z,86.90
2022-08-14T23:42:08.676Z,86.60
2022-08-14T23:44:37.745Z,86.20
2022-08-14T23:47:12.177Z,86.60
2022-08-14T23:50:00.447Z,85.30
2022-08-14T23:52:56.179Z,84.60
2022-08-14T23:55:16.626Z,84.10
2022-08-14T23:57:57.289Z,83.90
